Elkins-Randolph Co-Jennings Randolph Field
KEKN : rendu visible

Aérodrome :











RETROUVEZ-NOUS SUR...

 
LOGIN :

S'inscrire | Disclaimer

   EN    FR    IT 

 









Légende :    VFR   VFR Marginal   IFR   IFR Intensif   IFR Très Intensif
Visi : 
Plafond : 
>= 8 km
>= 3000ft
5 à 8 km
1000 à 3000 ft
1500m à 5 km
500 à 1000 ft
800 à 1500m
200 à 500 ft
< 800m
< 200 ft
Symboles :   Orages  Brouillard  Fortes neiges  Fortes précipitations  Vent > 20 kt






- Altitude de l'aérodrome : 1987 ft


KEKN - Elkins-Randolph Co-Jennings Randolph Field

DERNIER METAR :
  • 240551Z AUTO 00000KT 10SM BKN110 01/M04 A3016 RMK AO2 SLP229 T00111039 10056 20000 58009 $

METARs EXPIRÉS :
  • 240451Z AUTO 09004KT 10SM SCT100 02/M05 A3017 RMK AO2 SLP238 T00171050 401111083 $
  • 240351Z AUTO 00000KT 10SM FEW110 02/M04 A3018 RMK AO2 SLP242 T00171044 $

TAF KEKN
Valide du 24 à 06h jusqu'au 25 à 06h UTC


240534Z 2406/2506 14004KT P6SM BKN120
FM240900 VRB03KT P6SM BKN100 WS010/16030KT
FM241600 14009G27KT P6SM OVC060
FM242100 14014G35KT 5SM BR OVC045
FM250000 14009G30KT 4SM SHRA OVC020



MET'MAP, la Météo Aéronautique d'un coup d'oeil ! - Copyright ORBIFLY Décembre 2007 - Disclaimer

ORBIFLY MET'MAP TEAM :

Programmation & Développement : Alexandra Zaïnal
Sur une idée originale de : Baudouin d'Aumeries
Assistance à la programmation : Marc-Olivier Méhu
Soutien technique & logistique : Manuel Goepfert

Contact : metmap@orbifly.com




SOURCES & CREDITS :

   NOAA       Earth
Advisory